PIA747 OPIS-OEMA
Flight info
| Callsign | PIA747 |
|---|---|
| Flight time | 4h 40m |
| Altitude | 34000 |
| Route | KALMI J139 ZB G325 PG/N0500F360 T385 TAPDO G652 TOKRA/N0511F280 Y511 ELONU |
| Aircraft | B77W/H-SDE1E2E3FGHIJ2J3J4J5M1RWXY/LB1D1 |
Departure
| Time | 2026-04-28 16:31 |
|---|---|
| Airport | Islamabad International Airport (OPIS) |
Arrival
| Time | 2026-04-28 21:11 |
|---|---|
| Airport | Prince Mohammad Bin Abdulaziz Airport (OEMA) |
| Time | Latitude | Longitude | Altitude | Speed | Heading |
|---|---|---|---|---|---|
| 2026-04-28 16:06 | 33.55398 | 72.83185 | 1775 ft | 0 kts | 326° |
| 2026-04-28 16:07 | 33.55414 | 72.83172 | 1772 ft | 0 kts | 326° |
| 2026-04-28 16:21 | 33.55407 | 72.83178 | 1794 ft | 4 kts | 327° |
| 2026-04-28 16:21 | 33.55385 | 72.83194 | 1797 ft | 4 kts | 334° |
| 2026-04-28 16:21 | 33.55362 | 72.83206 | 1772 ft | 4 kts | 342° |
| 2026-04-28 16:22 | 33.55337 | 72.83213 | 1774 ft | 4 kts | 356° |
| 2026-04-28 16:22 | 33.55314 | 72.83210 | 1776 ft | 4 kts | 31° |
| 2026-04-28 16:22 | 33.55304 | 72.83201 | 1775 ft | 0 kts | 56° |
| 2026-04-28 16:25 | 33.55304 | 72.83202 | 1775 ft | 0 kts | 56° |
| 2026-04-28 16:25 | 33.55314 | 72.83218 | 1776 ft | 5 kts | 56° |
| 2026-04-28 16:26 | 33.55350 | 72.83282 | 1778 ft | 11 kts | 58° |
| 2026-04-28 16:26 | 33.55354 | 72.83372 | 1777 ft | 12 kts | 100° |
| 2026-04-28 16:26 | 33.55336 | 72.83482 | 1775 ft | 11 kts | 101° |
| 2026-04-28 16:26 | 33.55283 | 72.83542 | 1779 ft | 14 kts | 177° |
| 2026-04-28 16:27 | 33.55158 | 72.83517 | 1777 ft | 19 kts | 191° |
| 2026-04-28 16:27 | 33.55049 | 72.83546 | 1775 ft | 10 kts | 108° |
| 2026-04-28 16:27 | 33.54998 | 72.83864 | 1776 ft | 23 kts | 100° |
| 2026-04-28 16:28 | 33.54970 | 72.84051 | 1775 ft | 23 kts | 100° |
| 2026-04-28 16:28 | 33.54941 | 72.84237 | 1773 ft | 23 kts | 100° |
| 2026-04-28 16:28 | 33.54913 | 72.84420 | 1774 ft | 20 kts | 101° |
| 2026-04-28 16:28 | 33.54886 | 72.84532 | 1776 ft | 12 kts | 135° |
| 2026-04-28 16:29 | 33.54712 | 72.84486 | 1772 ft | 15 kts | 248° |
| 2026-04-28 16:29 | 33.54724 | 72.84344 | 1771 ft | 9 kts | 281° |
| 2026-04-28 16:30 | 33.54760 | 72.84113 | 1765 ft | 59 kts | 281° |
| 2026-04-28 16:30 | 33.54887 | 72.83308 | 1771 ft | 139 kts | 281° |
| 2026-04-28 16:30 | 33.55112 | 72.81866 | 1770 ft | 209 kts | 280° |
| 2026-04-28 16:30 | 33.55400 | 72.79992 | 2134 ft | 239 kts | 281° |
| 2026-04-28 16:31 | 33.55713 | 72.78021 | 2751 ft | 243 kts | 280° |
| 2026-04-28 16:31 | 33.56030 | 72.75994 | 3426 ft | 251 kts | 282° |
| 2026-04-28 16:31 | 33.56327 | 72.73857 | 3752 ft | 268 kts | 271° |
| 2026-04-28 16:31 | 33.55887 | 72.71679 | 4182 ft | 275 kts | 236° |
| 2026-04-28 16:32 | 33.54614 | 72.69991 | 4822 ft | 273 kts | 223° |
| 2026-04-28 16:32 | 33.53644 | 72.65675 | 5933 ft | 287 kts | 279° |
| 2026-04-28 16:32 | 33.53983 | 72.63318 | 6648 ft | 286 kts | 277° |
| 2026-04-28 16:33 | 33.54217 | 72.60955 | 7445 ft | 285 kts | 274° |
| 2026-04-28 16:33 | 33.54324 | 72.59389 | 7975 ft | 283 kts | 273° |
| 2026-04-28 16:33 | 33.54464 | 72.56300 | 9102 ft | 279 kts | 272° |
| 2026-04-28 16:33 | 33.54533 | 72.53968 | 9834 ft | 281 kts | 271° |
| 2026-04-28 16:34 | 33.54585 | 72.51575 | 10256 ft | 295 kts | 271° |
| 2026-04-28 16:34 | 33.54628 | 72.49010 | 10416 ft | 319 kts | 271° |
| 2026-04-28 16:34 | 33.54666 | 72.46252 | 10587 ft | 343 kts | 271° |
| 2026-04-28 16:34 | 33.54704 | 72.43298 | 10862 ft | 362 kts | 271° |
| 2026-04-28 16:35 | 33.54737 | 72.40241 | 11471 ft | 371 kts | 270° |
| 2026-04-28 16:35 | 33.54751 | 72.37130 | 12280 ft | 375 kts | 270° |
| 2026-04-28 16:35 | 33.54756 | 72.33996 | 13224 ft | 376 kts | 270° |
| 2026-04-28 16:35 | 33.54761 | 72.30849 | 14054 ft | 380 kts | 270° |
| 2026-04-28 16:36 | 33.54766 | 72.27661 | 14760 ft | 386 kts | 271° |
| 2026-04-28 16:36 | 33.54772 | 72.24423 | 15490 ft | 390 kts | 271° |
| 2026-04-28 16:36 | 33.54777 | 72.21175 | 16380 ft | 391 kts | 271° |
| 2026-04-28 16:36 | 33.54784 | 72.17894 | 17109 ft | 396 kts | 271° |
| 2026-04-28 16:37 | 33.54789 | 72.14599 | 17772 ft | 403 kts | 271° |
| 2026-04-28 16:37 | 33.54794 | 72.11218 | 18409 ft | 409 kts | 271° |
| 2026-04-28 16:37 | 33.54798 | 72.07794 | 19039 ft | 413 kts | 271° |
| 2026-04-28 16:38 | 33.54767 | 72.00834 | 20308 ft | 422 kts | 268° |
| 2026-04-28 16:38 | 33.54574 | 71.97301 | 20914 ft | 427 kts | 266° |
| 2026-04-28 16:38 | 33.54316 | 71.93729 | 21503 ft | 432 kts | 265° |
| 2026-04-28 16:38 | 33.54070 | 71.90122 | 22083 ft | 436 kts | 266° |
| 2026-04-28 16:39 | 33.53846 | 71.86485 | 22726 ft | 439 kts | 266° |
| 2026-04-28 16:39 | 33.53632 | 71.82823 | 23310 ft | 443 kts | 266° |
| 2026-04-28 16:39 | 33.53419 | 71.79115 | 23770 ft | 448 kts | 266° |
| 2026-04-28 16:39 | 33.53205 | 71.75376 | 24246 ft | 451 kts | 266° |
| 2026-04-28 16:40 | 33.52987 | 71.71611 | 24736 ft | 454 kts | 266° |
| 2026-04-28 16:40 | 33.52765 | 71.67816 | 25228 ft | 457 kts | 266° |
| 2026-04-28 16:40 | 33.52543 | 71.64042 | 25686 ft | 461 kts | 265° |
| 2026-04-28 16:40 | 33.52315 | 71.60197 | 26139 ft | 464 kts | 265° |
| 2026-04-28 16:41 | 33.52084 | 71.56326 | 26578 ft | 468 kts | 265° |
| 2026-04-28 16:41 | 33.51851 | 71.52432 | 27073 ft | 469 kts | 266° |
| 2026-04-28 16:41 | 33.51616 | 71.48517 | 27521 ft | 472 kts | 266° |
| 2026-04-28 16:41 | 33.51377 | 71.44574 | 27910 ft | 476 kts | 265° |
| 2026-04-28 16:42 | 33.51133 | 71.40609 | 28277 ft | 480 kts | 265° |
| 2026-04-28 16:42 | 33.50884 | 71.36600 | 28636 ft | 483 kts | 265° |
| 2026-04-28 16:42 | 33.50633 | 71.32574 | 28996 ft | 486 kts | 265° |
| 2026-04-28 16:42 | 33.50379 | 71.28515 | 29334 ft | 489 kts | 265° |
| 2026-04-28 16:43 | 33.50123 | 71.24441 | 29642 ft | 492 kts | 265° |
| 2026-04-28 16:43 | 33.49864 | 71.20336 | 29946 ft | 494 kts | 265° |
| 2026-04-28 16:43 | 33.49604 | 71.16229 | 30317 ft | 493 kts | 265° |
| 2026-04-28 16:43 | 33.49344 | 71.12136 | 30788 ft | 491 kts | 265° |
| 2026-04-28 16:44 | 33.49081 | 71.08074 | 31248 ft | 486 kts | 264° |
| 2026-04-28 16:44 | 33.48426 | 71.04124 | 31479 ft | 485 kts | 249° |
| 2026-04-28 16:44 | 33.46861 | 71.00611 | 31744 ft | 485 kts | 233° |
| 2026-04-28 16:44 | 33.44613 | 70.97610 | 32148 ft | 483 kts | 221° |
| 2026-04-28 16:45 | 33.41892 | 70.95294 | 32535 ft | 479 kts | 212° |
| 2026-04-28 16:45 | 33.39042 | 70.93224 | 32866 ft | 479 kts | 211° |
| 2026-04-28 16:45 | 33.36185 | 70.91180 | 33228 ft | 478 kts | 211° |
| 2026-04-28 16:45 | 33.33345 | 70.89134 | 33645 ft | 475 kts | 212° |
| 2026-04-28 16:46 | 33.30517 | 70.87073 | 33796 ft | 478 kts | 212° |
| 2026-04-28 16:46 | 33.24843 | 70.82871 | 33780 ft | 478 kts | 213° |
| 2026-04-28 16:47 | 33.19210 | 70.78672 | 33756 ft | 477 kts | 213° |
| 2026-04-28 16:47 | 33.13569 | 70.74471 | 33776 ft | 479 kts | 213° |
| 2026-04-28 16:48 | 33.07896 | 70.70259 | 33764 ft | 481 kts | 213° |
| 2026-04-28 16:48 | 33.02196 | 70.66035 | 33761 ft | 483 kts | 213° |
| 2026-04-28 16:49 | 32.96483 | 70.61806 | 33751 ft | 484 kts | 213° |
| 2026-04-28 16:49 | 32.90767 | 70.57554 | 33740 ft | 484 kts | 214° |
| 2026-04-28 16:50 | 32.85101 | 70.53221 | 33735 ft | 484 kts | 216° |
| 2026-04-28 16:50 | 32.79424 | 70.48874 | 33755 ft | 486 kts | 216° |
| 2026-04-28 16:51 | 32.73749 | 70.44552 | 33761 ft | 488 kts | 216° |
| 2026-04-28 16:51 | 32.68012 | 70.40196 | 33743 ft | 489 kts | 216° |
| 2026-04-28 16:52 | 32.62268 | 70.35860 | 33723 ft | 491 kts | 216° |
| 2026-04-28 16:52 | 32.56377 | 70.31734 | 33762 ft | 492 kts | 214° |
| 2026-04-28 16:53 | 32.50459 | 70.27670 | 33753 ft | 492 kts | 214° |
| 2026-04-28 16:53 | 32.44542 | 70.23558 | 33758 ft | 492 kts | 215° |
| 2026-04-28 16:54 | 32.38640 | 70.19442 | 33749 ft | 493 kts | 215° |
| 2026-04-28 16:54 | 32.32792 | 70.15321 | 33757 ft | 490 kts | 216° |
| 2026-04-28 16:55 | 32.26950 | 70.11111 | 33750 ft | 487 kts | 217° |
| 2026-04-28 16:55 | 32.21209 | 70.06930 | 33748 ft | 487 kts | 217° |
| 2026-04-28 16:56 | 32.15422 | 70.02755 | 33773 ft | 487 kts | 216° |
| 2026-04-28 16:56 | 32.09634 | 69.98602 | 33767 ft | 488 kts | 216° |
| 2026-04-28 16:57 | 32.03832 | 69.94446 | 33747 ft | 488 kts | 216° |
| 2026-04-28 16:57 | 31.98023 | 69.90291 | 33764 ft | 488 kts | 216° |
| 2026-04-28 16:58 | 31.92209 | 69.86136 | 33751 ft | 489 kts | 217° |
| 2026-04-28 16:58 | 31.86427 | 69.82012 | 33762 ft | 489 kts | 217° |
| 2026-04-28 16:59 | 31.80600 | 69.77858 | 33769 ft | 490 kts | 217° |
| 2026-04-28 16:59 | 31.74761 | 69.73706 | 33753 ft | 489 kts | 217° |
| 2026-04-28 17:00 | 31.68946 | 69.69576 | 33765 ft | 489 kts | 217° |
| 2026-04-28 17:00 | 31.63126 | 69.65447 | 33756 ft | 489 kts | 217° |
| 2026-04-28 17:01 | 31.57307 | 69.61325 | 33755 ft | 489 kts | 217° |
| 2026-04-28 17:01 | 31.51480 | 69.57202 | 33761 ft | 488 kts | 217° |
| 2026-04-28 17:02 | 31.45662 | 69.53093 | 33735 ft | 488 kts | 217° |
| 2026-04-28 17:02 | 31.39851 | 69.48996 | 33743 ft | 486 kts | 217° |
| 2026-04-28 17:03 | 31.32103 | 69.41685 | 33745 ft | 471 kts | 233° |
| 2026-04-28 17:03 | 31.27712 | 69.36017 | 33757 ft | 470 kts | 233° |
| 2026-04-28 17:04 | 31.21133 | 69.27567 | 33760 ft | 471 kts | 233° |
| 2026-04-28 17:05 | 31.14484 | 69.19114 | 33744 ft | 471 kts | 233° |
| 2026-04-28 17:06 | 31.07824 | 69.10669 | 33767 ft | 471 kts | 232° |
| 2026-04-28 17:06 | 31.01914 | 69.03193 | 33774 ft | 471 kts | 233° |
| 2026-04-28 17:07 | 30.97468 | 68.97580 | 33778 ft | 471 kts | 233° |
| 2026-04-28 17:07 | 30.93026 | 68.91975 | 33776 ft | 470 kts | 232° |
| 2026-04-28 17:08 | 30.88582 | 68.86378 | 33788 ft | 470 kts | 232° |
| 2026-04-28 17:08 | 30.84145 | 68.80798 | 33788 ft | 470 kts | 232° |
| 2026-04-28 17:09 | 30.79703 | 68.75221 | 33762 ft | 470 kts | 232° |
| 2026-04-28 17:09 | 30.75283 | 68.69678 | 33774 ft | 471 kts | 232° |
| 2026-04-28 17:10 | 30.70819 | 68.64089 | 33776 ft | 472 kts | 232° |
| 2026-04-28 17:10 | 30.66341 | 68.58490 | 33801 ft | 473 kts | 232° |
| 2026-04-28 17:11 | 30.61849 | 68.52882 | 33800 ft | 474 kts | 232° |
| 2026-04-28 17:11 | 30.57353 | 68.47277 | 33796 ft | 474 kts | 232° |
| 2026-04-28 17:12 | 30.52862 | 68.41689 | 33821 ft | 473 kts | 232° |
| 2026-04-28 17:12 | 30.48372 | 68.36108 | 33784 ft | 473 kts | 232° |
| 2026-04-28 17:13 | 30.43883 | 68.30535 | 33820 ft | 473 kts | 232° |
| 2026-04-28 17:13 | 30.39392 | 68.24968 | 33821 ft | 473 kts | 232° |
| 2026-04-28 17:14 | 30.34892 | 68.19398 | 33831 ft | 474 kts | 232° |
| 2026-04-28 17:14 | 30.30389 | 68.13832 | 33823 ft | 474 kts | 232° |
| 2026-04-28 17:15 | 30.25880 | 68.08272 | 33800 ft | 473 kts | 232° |
| 2026-04-28 17:15 | 30.21349 | 68.02743 | 33806 ft | 473 kts | 232° |
| 2026-04-28 17:16 | 30.16808 | 67.97219 | 33799 ft | 475 kts | 232° |
| 2026-04-28 17:16 | 30.12261 | 67.91687 | 33752 ft | 475 kts | 232° |
| 2026-04-28 17:17 | 30.07742 | 67.86188 | 33770 ft | 476 kts | 232° |
| 2026-04-28 17:17 | 30.03215 | 67.80593 | 33771 ft | 476 kts | 232° |
| 2026-04-28 17:18 | 29.98705 | 67.74980 | 33714 ft | 477 kts | 232° |
| 2026-04-28 17:18 | 29.94171 | 67.69365 | 33710 ft | 478 kts | 232° |
| 2026-04-28 17:19 | 29.89632 | 67.63764 | 33724 ft | 478 kts | 232° |
| 2026-04-28 17:19 | 29.85095 | 67.58171 | 33704 ft | 477 kts | 232° |
| 2026-04-28 17:20 | 29.81329 | 67.53535 | 33703 ft | 476 kts | 232° |
| 2026-04-28 17:20 | 29.76048 | 67.47041 | 33708 ft | 474 kts | 233° |
| 2026-04-28 17:21 | 29.71564 | 67.41531 | 33709 ft | 474 kts | 233° |
| 2026-04-28 17:22 | 29.64808 | 67.33214 | 33745 ft | 475 kts | 233° |
| 2026-04-28 17:22 | 29.60294 | 67.27662 | 33778 ft | 476 kts | 233° |
| 2026-04-28 17:23 | 29.53517 | 67.19346 | 33760 ft | 475 kts | 232° |
| 2026-04-28 17:23 | 29.48997 | 67.13819 | 33837 ft | 476 kts | 232° |
| 2026-04-28 17:24 | 29.44458 | 67.08267 | 33828 ft | 478 kts | 232° |
| 2026-04-28 17:24 | 29.39901 | 67.02701 | 33830 ft | 479 kts | 232° |
| 2026-04-28 17:25 | 29.33052 | 66.94352 | 33852 ft | 479 kts | 232° |
| 2026-04-28 17:26 | 29.28513 | 66.88830 | 33843 ft | 479 kts | 232° |
| 2026-04-28 17:26 | 29.23948 | 66.83282 | 33881 ft | 479 kts | 232° |
| 2026-04-28 17:27 | 29.19367 | 66.77720 | 33891 ft | 481 kts | 232° |
| 2026-04-28 17:27 | 29.14768 | 66.72147 | 33899 ft | 482 kts | 232° |
| 2026-04-28 17:28 | 29.10155 | 66.66564 | 33893 ft | 483 kts | 232° |
| 2026-04-28 17:28 | 29.03231 | 66.58199 | 33899 ft | 483 kts | 232° |
| 2026-04-28 17:29 | 28.98619 | 66.52627 | 33891 ft | 482 kts | 233° |
| 2026-04-28 17:30 | 28.91725 | 66.44298 | 33887 ft | 480 kts | 233° |
| 2026-04-28 17:30 | 28.84848 | 66.36005 | 33887 ft | 479 kts | 233° |
| 2026-04-28 17:31 | 28.78002 | 66.27766 | 33871 ft | 479 kts | 233° |
| 2026-04-28 17:32 | 28.71123 | 66.19505 | 33866 ft | 479 kts | 233° |
| 2026-04-28 17:32 | 28.66529 | 66.13999 | 33865 ft | 479 kts | 233° |
| 2026-04-28 17:33 | 28.61932 | 66.08495 | 33849 ft | 480 kts | 233° |
| 2026-04-28 17:33 | 28.58107 | 66.03923 | 33844 ft | 480 kts | 233° |
| 2026-04-28 17:34 | 28.52725 | 65.97496 | 33810 ft | 480 kts | 233° |
| 2026-04-28 17:34 | 28.48114 | 65.92001 | 33818 ft | 479 kts | 233° |
| 2026-04-28 17:35 | 28.43510 | 65.86520 | 33785 ft | 479 kts | 233° |
| 2026-04-28 17:35 | 28.38933 | 65.81077 | 33786 ft | 480 kts | 233° |
| 2026-04-28 17:36 | 28.34316 | 65.75592 | 33797 ft | 481 kts | 233° |
| 2026-04-28 17:36 | 28.29679 | 65.70094 | 33774 ft | 482 kts | 233° |
| 2026-04-28 17:37 | 28.25037 | 65.64597 | 33765 ft | 482 kts | 233° |
| 2026-04-28 17:37 | 28.20396 | 65.59109 | 33760 ft | 481 kts | 233° |
| 2026-04-28 17:38 | 28.15756 | 65.53628 | 33757 ft | 481 kts | 233° |
| 2026-04-28 17:38 | 28.11148 | 65.48190 | 33753 ft | 481 kts | 233° |
| 2026-04-28 17:39 | 28.06512 | 65.42728 | 33747 ft | 481 kts | 233° |
| 2026-04-28 17:40 | 27.99553 | 65.34543 | 33751 ft | 481 kts | 233° |
| 2026-04-28 17:40 | 27.94906 | 65.29083 | 33739 ft | 481 kts | 233° |
| 2026-04-28 17:41 | 27.90263 | 65.23633 | 33768 ft | 482 kts | 233° |
| 2026-04-28 17:41 | 27.85609 | 65.18176 | 33757 ft | 482 kts | 233° |
| 2026-04-28 17:42 | 27.80947 | 65.12719 | 33750 ft | 482 kts | 233° |
| 2026-04-28 17:42 | 27.76287 | 65.07271 | 33765 ft | 482 kts | 233° |
| 2026-04-28 17:43 | 27.71626 | 65.01830 | 33769 ft | 482 kts | 233° |
| 2026-04-28 17:43 | 27.66954 | 64.96382 | 33762 ft | 483 kts | 233° |
| 2026-04-28 17:44 | 27.62276 | 64.90932 | 33785 ft | 484 kts | 233° |
| 2026-04-28 17:44 | 27.57620 | 64.85518 | 33791 ft | 484 kts | 233° |
| 2026-04-28 17:45 | 27.52929 | 64.80071 | 33787 ft | 484 kts | 233° |
| 2026-04-28 17:45 | 27.48237 | 64.74628 | 33802 ft | 484 kts | 233° |
| 2026-04-28 17:46 | 27.43542 | 64.69190 | 33798 ft | 484 kts | 233° |
| 2026-04-28 17:46 | 27.38845 | 64.63755 | 33795 ft | 483 kts | 232° |
| 2026-04-28 17:47 | 27.34151 | 64.58332 | 33798 ft | 483 kts | 233° |
| 2026-04-28 17:47 | 27.29464 | 64.52922 | 33804 ft | 483 kts | 232° |
| 2026-04-28 17:48 | 27.24772 | 64.47514 | 33807 ft | 484 kts | 232° |
| 2026-04-28 17:48 | 27.20100 | 64.42137 | 33814 ft | 484 kts | 232° |
| 2026-04-28 17:49 | 27.15369 | 64.36698 | 33809 ft | 485 kts | 232° |
| 2026-04-28 17:49 | 27.10645 | 64.31276 | 33800 ft | 485 kts | 233° |
| 2026-04-28 17:50 | 27.05922 | 64.25860 | 33807 ft | 485 kts | 233° |
| 2026-04-28 17:50 | 27.01235 | 64.20491 | 33788 ft | 484 kts | 233° |
| 2026-04-28 17:51 | 26.96520 | 64.15097 | 33794 ft | 484 kts | 232° |
| 2026-04-28 17:51 | 26.91795 | 64.09723 | 33788 ft | 484 kts | 232° |
| 2026-04-28 17:52 | 26.87048 | 64.04371 | 33778 ft | 484 kts | 232° |
| 2026-04-28 17:52 | 26.80728 | 63.97253 | 33766 ft | 483 kts | 232° |
| 2026-04-28 17:53 | 26.75990 | 63.91917 | 33770 ft | 482 kts | 232° |
| 2026-04-28 17:53 | 26.71261 | 63.86596 | 33771 ft | 482 kts | 232° |
| 2026-04-28 17:54 | 26.66535 | 63.81285 | 33750 ft | 482 kts | 232° |
| 2026-04-28 17:54 | 26.61803 | 63.75974 | 33761 ft | 481 kts | 232° |
| 2026-04-28 17:55 | 26.57072 | 63.70670 | 33752 ft | 481 kts | 232° |
| 2026-04-28 17:55 | 26.52357 | 63.65394 | 33739 ft | 478 kts | 232° |
| 2026-04-28 17:56 | 26.47664 | 63.60148 | 33747 ft | 477 kts | 232° |
| 2026-04-28 17:56 | 26.43014 | 63.54954 | 33733 ft | 475 kts | 232° |
| 2026-04-28 17:57 | 26.38338 | 63.49737 | 33732 ft | 475 kts | 232° |
| 2026-04-28 17:57 | 26.33667 | 63.44533 | 33723 ft | 475 kts | 232° |
| 2026-04-28 17:58 | 26.28986 | 63.39321 | 33718 ft | 476 kts | 231° |
| 2026-04-28 17:58 | 26.24290 | 63.34100 | 33706 ft | 478 kts | 231° |
| 2026-04-28 17:59 | 26.19573 | 63.28865 | 33708 ft | 480 kts | 231° |
| 2026-04-28 17:59 | 26.14837 | 63.23615 | 33709 ft | 481 kts | 231° |
| 2026-04-28 18:00 | 26.10088 | 63.18355 | 33697 ft | 482 kts | 231° |
| 2026-04-28 18:00 | 26.05344 | 63.13106 | 33697 ft | 481 kts | 231° |
| 2026-04-28 18:01 | 26.00600 | 63.07866 | 33692 ft | 480 kts | 231° |
| 2026-04-28 18:01 | 25.95860 | 63.02626 | 33676 ft | 481 kts | 231° |
| 2026-04-28 18:02 | 25.91123 | 62.97383 | 33683 ft | 481 kts | 231° |
| 2026-04-28 18:02 | 25.86410 | 62.92171 | 33676 ft | 481 kts | 231° |
| 2026-04-28 18:03 | 25.81659 | 62.86926 | 33667 ft | 482 kts | 231° |
| 2026-04-28 18:03 | 25.76898 | 62.81675 | 33681 ft | 482 kts | 231° |
| 2026-04-28 18:04 | 25.72133 | 62.76429 | 33664 ft | 482 kts | 231° |
| 2026-04-28 18:04 | 25.67380 | 62.71201 | 33669 ft | 481 kts | 231° |
| 2026-04-28 18:05 | 25.63431 | 62.66861 | 33668 ft | 480 kts | 231° |
| 2026-04-28 18:05 | 25.57886 | 62.60775 | 33666 ft | 479 kts | 231° |
| 2026-04-28 18:06 | 25.53147 | 62.55580 | 33680 ft | 479 kts | 231° |
| 2026-04-28 18:06 | 25.48408 | 62.50390 | 33664 ft | 479 kts | 231° |
| 2026-04-28 18:07 | 25.43691 | 62.45231 | 33682 ft | 479 kts | 231° |
| 2026-04-28 18:07 | 25.38945 | 62.40047 | 33665 ft | 480 kts | 231° |
| 2026-04-28 18:08 | 25.34198 | 62.34867 | 33678 ft | 479 kts | 231° |
| 2026-04-28 18:08 | 25.29447 | 62.29689 | 33677 ft | 480 kts | 231° |
| 2026-04-28 18:09 | 25.24683 | 62.24504 | 33671 ft | 480 kts | 230° |
| 2026-04-28 18:09 | 25.19914 | 62.19318 | 33676 ft | 482 kts | 230° |
| 2026-04-28 18:10 | 25.15125 | 62.14117 | 33677 ft | 483 kts | 230° |
| 2026-04-28 18:10 | 25.10358 | 62.08946 | 33680 ft | 484 kts | 230° |
| 2026-04-28 18:11 | 25.05551 | 62.03738 | 33680 ft | 485 kts | 230° |
| 2026-04-28 18:11 | 25.00738 | 61.98530 | 33678 ft | 485 kts | 230° |
| 2026-04-28 18:12 | 24.95918 | 61.93320 | 33678 ft | 484 kts | 230° |
| 2026-04-28 18:12 | 24.91105 | 61.88124 | 33666 ft | 484 kts | 230° |
| 2026-04-28 18:13 | 24.86329 | 61.82971 | 33679 ft | 484 kts | 230° |
| 2026-04-28 18:13 | 24.81515 | 61.77786 | 33685 ft | 484 kts | 230° |
| 2026-04-28 18:14 | 24.76696 | 61.72600 | 33684 ft | 484 kts | 230° |
| 2026-04-28 18:14 | 24.71876 | 61.67419 | 33687 ft | 485 kts | 230° |
| 2026-04-28 18:15 | 24.67043 | 61.62231 | 33693 ft | 485 kts | 230° |
| 2026-04-28 18:15 | 24.62209 | 61.57046 | 33692 ft | 485 kts | 230° |
| 2026-04-28 18:16 | 24.57374 | 61.51867 | 33692 ft | 485 kts | 230° |
| 2026-04-28 18:16 | 24.52538 | 61.46691 | 33684 ft | 485 kts | 229° |
| 2026-04-28 18:17 | 24.47698 | 61.41518 | 33693 ft | 486 kts | 229° |
| 2026-04-28 18:17 | 24.42910 | 61.36283 | 33691 ft | 483 kts | 234° |
| 2026-04-28 18:18 | 24.39238 | 61.30276 | 33706 ft | 474 kts | 246° |
| 2026-04-28 18:18 | 24.37119 | 61.24741 | 33702 ft | 468 kts | 255° |
| 2026-04-28 18:19 | 24.34653 | 61.16887 | 33700 ft | 469 kts | 255° |
| 2026-04-28 18:19 | 24.32504 | 61.10142 | 33697 ft | 469 kts | 254° |
| 2026-04-28 18:20 | 24.30320 | 61.03393 | 33692 ft | 469 kts | 254° |
| 2026-04-28 18:20 | 24.28127 | 60.96655 | 33700 ft | 469 kts | 254° |
| 2026-04-28 18:21 | 24.25933 | 60.89918 | 33699 ft | 469 kts | 254° |
| 2026-04-28 18:21 | 24.23734 | 60.83174 | 33701 ft | 469 kts | 254° |
| 2026-04-28 18:22 | 24.21534 | 60.76436 | 33702 ft | 469 kts | 254° |
| 2026-04-28 18:22 | 24.19327 | 60.69705 | 33700 ft | 469 kts | 254° |
| 2026-04-28 18:23 | 24.17127 | 60.63024 | 33704 ft | 469 kts | 254° |
| 2026-04-28 18:23 | 24.14907 | 60.56292 | 33704 ft | 469 kts | 254° |
| 2026-04-28 18:24 | 24.13061 | 60.50701 | 33707 ft | 470 kts | 254° |
| 2026-04-28 18:24 | 24.10462 | 60.42838 | 33705 ft | 469 kts | 253° |
| 2026-04-28 18:25 | 24.08237 | 60.36118 | 33706 ft | 469 kts | 253° |
| 2026-04-28 18:26 | 24.04895 | 60.26046 | 33710 ft | 469 kts | 253° |
| 2026-04-28 18:26 | 24.02662 | 60.19328 | 33708 ft | 469 kts | 253° |
| 2026-04-28 18:27 | 24.00442 | 60.12663 | 33713 ft | 469 kts | 253° |
| 2026-04-28 18:27 | 23.98204 | 60.05956 | 33711 ft | 469 kts | 253° |
| 2026-04-28 18:28 | 23.95962 | 59.99244 | 33711 ft | 470 kts | 253° |
| 2026-04-28 18:28 | 23.93712 | 59.92522 | 33720 ft | 472 kts | 253° |
| 2026-04-28 18:29 | 23.91450 | 59.85776 | 33718 ft | 473 kts | 253° |
| 2026-04-28 18:29 | 23.89184 | 59.79027 | 33718 ft | 474 kts | 253° |
| 2026-04-28 18:30 | 23.86911 | 59.72268 | 33718 ft | 474 kts | 253° |
| 2026-04-28 18:30 | 23.84631 | 59.65502 | 33721 ft | 474 kts | 253° |
| 2026-04-28 18:31 | 23.82355 | 59.58755 | 33716 ft | 473 kts | 253° |
| 2026-04-28 18:31 | 23.80090 | 59.52052 | 33720 ft | 473 kts | 253° |
| 2026-04-28 18:32 | 23.77751 | 59.45335 | 33723 ft | 474 kts | 252° |
| 2026-04-28 18:32 | 23.75324 | 59.38649 | 33723 ft | 474 kts | 252° |
| 2026-04-28 18:33 | 23.72895 | 59.31967 | 33725 ft | 473 kts | 252° |
| 2026-04-28 18:33 | 23.70475 | 59.25281 | 33727 ft | 473 kts | 252° |
| 2026-04-28 18:34 | 23.68061 | 59.18599 | 33725 ft | 474 kts | 252° |
| 2026-04-28 18:34 | 23.65642 | 59.11915 | 33729 ft | 474 kts | 252° |
| 2026-04-28 18:35 | 23.63217 | 59.05226 | 33728 ft | 474 kts | 252° |
| 2026-04-28 18:35 | 23.60804 | 58.98581 | 33727 ft | 474 kts | 251° |
| 2026-04-28 18:36 | 23.58374 | 58.91899 | 33731 ft | 474 kts | 251° |
| 2026-04-28 18:36 | 23.55937 | 58.85207 | 33731 ft | 475 kts | 251° |
| 2026-04-28 18:37 | 23.53493 | 58.78508 | 33743 ft | 475 kts | 251° |
| 2026-04-28 18:37 | 23.51046 | 58.71812 | 33744 ft | 476 kts | 251° |
| 2026-04-28 18:38 | 23.48593 | 58.65115 | 33745 ft | 476 kts | 251° |
| 2026-04-28 18:38 | 23.46140 | 58.58414 | 33761 ft | 476 kts | 251° |
| 2026-04-28 18:39 | 23.44102 | 58.52854 | 33743 ft | 475 kts | 251° |
| 2026-04-28 18:39 | 23.41248 | 58.45094 | 33762 ft | 475 kts | 251° |
| 2026-04-28 18:40 | 23.38753 | 58.38433 | 33767 ft | 475 kts | 250° |
| 2026-04-28 18:40 | 23.36619 | 58.32869 | 33792 ft | 475 kts | 250° |
| 2026-04-28 18:41 | 23.34089 | 58.26268 | 33771 ft | 476 kts | 250° |
| 2026-04-28 18:41 | 23.31535 | 58.19599 | 33776 ft | 477 kts | 250° |
| 2026-04-28 18:42 | 23.28983 | 58.12932 | 33782 ft | 478 kts | 250° |
| 2026-04-28 18:42 | 23.26428 | 58.06264 | 33788 ft | 478 kts | 250° |
| 2026-04-28 18:43 | 23.23881 | 57.99587 | 33801 ft | 477 kts | 251° |
| 2026-04-28 18:43 | 23.21555 | 57.92878 | 33815 ft | 477 kts | 252° |
| 2026-04-28 18:44 | 23.19274 | 57.86105 | 33831 ft | 477 kts | 252° |
| 2026-04-28 18:44 | 23.15800 | 57.75987 | 33860 ft | 475 kts | 252° |
| 2026-04-28 18:45 | 23.13470 | 57.69243 | 33868 ft | 477 kts | 252° |
| 2026-04-28 18:45 | 23.11124 | 57.62476 | 33861 ft | 479 kts | 252° |
| 2026-04-28 18:46 | 23.08774 | 57.55703 | 33859 ft | 479 kts | 252° |
| 2026-04-28 18:46 | 23.06416 | 57.48924 | 33870 ft | 480 kts | 252° |
| 2026-04-28 18:47 | 23.04055 | 57.42142 | 33857 ft | 480 kts | 252° |
| 2026-04-28 18:47 | 23.01711 | 57.35415 | 33855 ft | 479 kts | 251° |
| 2026-04-28 18:48 | 22.99192 | 57.28733 | 33857 ft | 479 kts | 246° |
| 2026-04-28 18:48 | 22.96109 | 57.22322 | 33826 ft | 479 kts | 245° |
| 2026-04-28 18:49 | 22.93518 | 57.16964 | 33819 ft | 479 kts | 245° |
| 2026-04-28 18:49 | 22.89953 | 57.09514 | 33826 ft | 478 kts | 245° |
| 2026-04-28 18:50 | 22.86893 | 57.03100 | 33817 ft | 478 kts | 245° |
| 2026-04-28 18:50 | 22.83833 | 56.96697 | 33820 ft | 478 kts | 245° |
| 2026-04-28 18:51 | 22.80768 | 56.90293 | 33802 ft | 479 kts | 245° |
| 2026-04-28 18:51 | 22.77697 | 56.83879 | 33791 ft | 479 kts | 245° |
| 2026-04-28 18:52 | 22.74628 | 56.77474 | 33793 ft | 479 kts | 245° |
| 2026-04-28 18:52 | 22.71578 | 56.71112 | 33782 ft | 479 kts | 245° |
| 2026-04-28 18:53 | 22.68506 | 56.64715 | 33778 ft | 478 kts | 245° |
| 2026-04-28 18:53 | 22.65437 | 56.58333 | 33764 ft | 478 kts | 245° |
| 2026-04-28 18:54 | 22.62364 | 56.51947 | 33763 ft | 479 kts | 245° |
| 2026-04-28 18:54 | 22.59278 | 56.45545 | 33769 ft | 481 kts | 245° |
| 2026-04-28 18:55 | 22.56699 | 56.40198 | 33769 ft | 482 kts | 245° |
| 2026-04-28 18:55 | 22.53076 | 56.32710 | 33761 ft | 483 kts | 245° |
| 2026-04-28 18:56 | 22.49943 | 56.26258 | 33983 ft | 485 kts | 245° |
| 2026-04-28 18:56 | 22.48358 | 56.22996 | 34311 ft | 482 kts | 245° |
| 2026-04-28 18:56 | 22.46823 | 56.19838 | 34683 ft | 479 kts | 244° |
| 2026-04-28 18:57 | 22.45277 | 56.16659 | 35055 ft | 477 kts | 244° |
| 2026-04-28 18:57 | 22.43737 | 56.13491 | 35380 ft | 475 kts | 244° |
| 2026-04-28 18:57 | 22.42198 | 56.10327 | 35673 ft | 474 kts | 244° |
| 2026-04-28 18:57 | 22.40660 | 56.07167 | 35733 ft | 476 kts | 244° |
| 2026-04-28 18:58 | 22.37573 | 56.00833 | 35796 ft | 476 kts | 244° |
| 2026-04-28 18:58 | 22.34479 | 55.94531 | 35797 ft | 473 kts | 244° |
| 2026-04-28 18:59 | 22.31394 | 55.88264 | 35794 ft | 472 kts | 244° |
| 2026-04-28 18:59 | 22.28315 | 55.82005 | 35795 ft | 471 kts | 244° |
| 2026-04-28 19:00 | 22.25239 | 55.75762 | 35792 ft | 471 kts | 243° |
| 2026-04-28 19:00 | 22.22156 | 55.69498 | 35796 ft | 472 kts | 243° |
| 2026-04-28 19:01 | 22.19067 | 55.63227 | 35793 ft | 473 kts | 243° |
| 2026-04-28 19:01 | 22.16661 | 55.56681 | 35791 ft | 476 kts | 259° |
| 2026-04-28 19:02 | 22.16109 | 55.49555 | 35786 ft | 481 kts | 274° |
| 2026-04-28 19:02 | 22.16757 | 55.42355 | 35791 ft | 485 kts | 276° |
| 2026-04-28 19:03 | 22.17435 | 55.35080 | 35791 ft | 489 kts | 275° |
| 2026-04-28 19:03 | 22.18050 | 55.27758 | 35788 ft | 491 kts | 275° |
| 2026-04-28 19:04 | 22.18641 | 55.20392 | 35787 ft | 493 kts | 275° |
| 2026-04-28 19:04 | 22.19232 | 55.13004 | 35783 ft | 495 kts | 275° |
| 2026-04-28 19:05 | 22.19825 | 55.05598 | 35784 ft | 496 kts | 275° |
| 2026-04-28 19:05 | 22.20417 | 54.98178 | 35783 ft | 496 kts | 275° |
| 2026-04-28 19:06 | 22.20907 | 54.92022 | 35779 ft | 495 kts | 275° |
| 2026-04-28 19:06 | 22.21588 | 54.83423 | 35778 ft | 494 kts | 275° |
| 2026-04-28 19:07 | 22.22169 | 54.76031 | 35796 ft | 493 kts | 275° |
| 2026-04-28 19:07 | 22.22745 | 54.68672 | 35782 ft | 491 kts | 275° |
| 2026-04-28 19:08 | 22.23315 | 54.61328 | 35781 ft | 490 kts | 275° |
| 2026-04-28 19:08 | 22.23881 | 54.54009 | 35781 ft | 488 kts | 275° |
| 2026-04-28 19:09 | 22.24439 | 54.46743 | 35779 ft | 488 kts | 274° |
| 2026-04-28 19:09 | 22.24996 | 54.39448 | 35781 ft | 487 kts | 274° |
| 2026-04-28 19:10 | 22.25550 | 54.32150 | 35779 ft | 488 kts | 274° |
| 2026-04-28 19:10 | 22.26101 | 54.24846 | 35781 ft | 488 kts | 274° |
| 2026-04-28 19:11 | 22.26649 | 54.17545 | 35777 ft | 488 kts | 274° |
| 2026-04-28 19:11 | 22.27190 | 54.10277 | 35778 ft | 488 kts | 274° |
| 2026-04-28 19:12 | 22.27733 | 54.02959 | 35783 ft | 488 kts | 274° |
| 2026-04-28 19:12 | 22.28272 | 53.95646 | 35798 ft | 489 kts | 274° |
| 2026-04-28 19:13 | 22.28807 | 53.88334 | 35778 ft | 488 kts | 274° |
| 2026-04-28 19:13 | 22.29338 | 53.81033 | 35770 ft | 487 kts | 274° |
| 2026-04-28 19:14 | 22.29865 | 53.73744 | 35784 ft | 486 kts | 274° |
| 2026-04-28 19:14 | 22.30388 | 53.66469 | 35777 ft | 486 kts | 274° |
| 2026-04-28 19:15 | 22.30908 | 53.59187 | 35782 ft | 485 kts | 274° |
| 2026-04-28 19:15 | 22.31335 | 53.53149 | 35783 ft | 485 kts | 274° |
| 2026-04-28 19:16 | 22.31927 | 53.44712 | 35777 ft | 485 kts | 274° |
| 2026-04-28 19:16 | 22.32433 | 53.37447 | 35780 ft | 485 kts | 274° |
| 2026-04-28 19:17 | 22.32936 | 53.30183 | 35782 ft | 485 kts | 274° |
| 2026-04-28 19:17 | 22.33437 | 53.22908 | 35779 ft | 485 kts | 274° |
| 2026-04-28 19:18 | 22.33935 | 53.15638 | 35797 ft | 485 kts | 274° |
| 2026-04-28 19:18 | 22.34429 | 53.08368 | 35773 ft | 485 kts | 274° |
| 2026-04-28 19:19 | 22.34920 | 53.01097 | 35784 ft | 484 kts | 274° |
| 2026-04-28 19:19 | 22.35403 | 52.93890 | 35789 ft | 484 kts | 274° |
| 2026-04-28 19:20 | 22.35886 | 52.86635 | 35787 ft | 484 kts | 274° |
| 2026-04-28 19:20 | 22.36366 | 52.79386 | 35783 ft | 484 kts | 274° |
| 2026-04-28 19:21 | 22.36842 | 52.72133 | 35785 ft | 484 kts | 274° |
| 2026-04-28 19:21 | 22.37316 | 52.64873 | 35787 ft | 484 kts | 274° |
| 2026-04-28 19:22 | 22.37631 | 52.60024 | 35777 ft | 484 kts | 274° |
| 2026-04-28 19:22 | 22.38251 | 52.50396 | 35777 ft | 484 kts | 274° |
| 2026-04-28 19:23 | 22.38715 | 52.43138 | 35786 ft | 484 kts | 274° |
| 2026-04-28 19:23 | 22.39175 | 52.35881 | 35788 ft | 484 kts | 274° |
| 2026-04-28 19:24 | 22.39633 | 52.28621 | 35781 ft | 483 kts | 274° |
| 2026-04-28 19:24 | 22.40086 | 52.21376 | 35787 ft | 483 kts | 274° |
| 2026-04-28 19:25 | 22.40536 | 52.14142 | 35783 ft | 482 kts | 274° |
| 2026-04-28 19:25 | 22.40983 | 52.06920 | 35778 ft | 482 kts | 274° |
| 2026-04-28 19:26 | 22.41426 | 51.99746 | 35787 ft | 481 kts | 274° |
| 2026-04-28 19:26 | 22.41865 | 51.92526 | 35781 ft | 481 kts | 274° |
| 2026-04-28 19:27 | 22.42296 | 51.85291 | 35774 ft | 482 kts | 274° |
| 2026-04-28 19:27 | 22.42651 | 51.79288 | 35770 ft | 482 kts | 274° |
| 2026-04-28 19:28 | 22.43077 | 51.72048 | 35788 ft | 482 kts | 274° |
| 2026-04-28 19:28 | 22.43500 | 51.64812 | 35773 ft | 483 kts | 274° |
| 2026-04-28 19:29 | 22.43853 | 51.58744 | 35785 ft | 483 kts | 273° |
| 2026-04-28 19:29 | 22.44338 | 51.50321 | 35777 ft | 482 kts | 273° |
| 2026-04-28 19:30 | 22.44751 | 51.43089 | 35779 ft | 482 kts | 273° |
| 2026-04-28 19:30 | 22.45161 | 51.35845 | 35778 ft | 482 kts | 273° |
| 2026-04-28 19:31 | 22.45568 | 51.28617 | 35780 ft | 482 kts | 273° |
| 2026-04-28 19:31 | 22.45971 | 51.21386 | 35778 ft | 481 kts | 273° |
| 2026-04-28 19:32 | 22.46372 | 51.14161 | 35781 ft | 481 kts | 273° |
| 2026-04-28 19:32 | 22.46767 | 51.06977 | 35776 ft | 481 kts | 273° |
| 2026-04-28 19:33 | 22.47169 | 50.99750 | 35780 ft | 481 kts | 273° |
| 2026-04-28 19:33 | 22.47569 | 50.92523 | 35779 ft | 481 kts | 273° |
| 2026-04-28 19:34 | 22.47962 | 50.85350 | 35798 ft | 481 kts | 273° |
| 2026-04-28 19:34 | 22.48354 | 50.78132 | 35781 ft | 481 kts | 273° |
| 2026-04-28 19:35 | 22.48743 | 50.70914 | 35781 ft | 480 kts | 273° |
| 2026-04-28 19:35 | 22.49127 | 50.63707 | 35780 ft | 480 kts | 273° |
| 2026-04-28 19:36 | 22.49509 | 50.56509 | 35776 ft | 479 kts | 273° |
| 2026-04-28 19:36 | 22.49884 | 50.49354 | 35776 ft | 480 kts | 273° |
| 2026-04-28 19:37 | 22.50198 | 50.43319 | 35783 ft | 480 kts | 273° |
| 2026-04-28 19:37 | 22.50631 | 50.34947 | 35778 ft | 480 kts | 272° |
| 2026-04-28 19:38 | 22.51000 | 50.27740 | 35777 ft | 480 kts | 272° |
| 2026-04-28 19:38 | 22.51363 | 50.20570 | 35777 ft | 480 kts | 272° |
| 2026-04-28 19:39 | 22.51725 | 50.13366 | 35776 ft | 479 kts | 272° |
| 2026-04-28 19:39 | 22.52084 | 50.06162 | 35776 ft | 479 kts | 272° |
| 2026-04-28 19:40 | 22.52440 | 49.98965 | 35777 ft | 479 kts | 272° |
| 2026-04-28 19:40 | 22.52791 | 49.91782 | 35780 ft | 479 kts | 272° |
| 2026-04-28 19:41 | 22.53140 | 49.84586 | 35777 ft | 478 kts | 272° |
| 2026-04-28 19:41 | 22.53486 | 49.77397 | 35775 ft | 478 kts | 272° |
| 2026-04-28 19:42 | 22.54032 | 49.70221 | 35769 ft | 478 kts | 275° |
| 2026-04-28 19:42 | 22.54652 | 49.64272 | 35775 ft | 479 kts | 276° |
| 2026-04-28 19:43 | 22.55509 | 49.55941 | 35774 ft | 479 kts | 275° |
| 2026-04-28 19:43 | 22.56201 | 49.48773 | 35779 ft | 479 kts | 275° |
| 2026-04-28 19:44 | 22.56874 | 49.41605 | 35776 ft | 479 kts | 275° |
| 2026-04-28 19:44 | 22.57541 | 49.34449 | 35768 ft | 478 kts | 275° |
| 2026-04-28 19:45 | 22.58202 | 49.27337 | 35776 ft | 477 kts | 275° |
| 2026-04-28 19:45 | 22.58865 | 49.20185 | 35768 ft | 477 kts | 275° |
| 2026-04-28 19:46 | 22.59523 | 49.13054 | 35768 ft | 476 kts | 275° |
| 2026-04-28 19:46 | 22.60177 | 49.05926 | 35770 ft | 475 kts | 275° |
| 2026-04-28 19:47 | 22.60829 | 48.98795 | 35771 ft | 475 kts | 275° |
| 2026-04-28 19:47 | 22.61476 | 48.91676 | 35768 ft | 475 kts | 275° |
| 2026-04-28 19:48 | 22.62116 | 48.84596 | 35785 ft | 475 kts | 275° |
| 2026-04-28 19:48 | 22.62757 | 48.77472 | 35772 ft | 475 kts | 275° |
| 2026-04-28 19:49 | 22.63394 | 48.70368 | 35777 ft | 474 kts | 275° |
| 2026-04-28 19:49 | 22.64026 | 48.63272 | 35782 ft | 473 kts | 275° |
| 2026-04-28 19:50 | 22.64967 | 48.52641 | 35774 ft | 472 kts | 274° |
| 2026-04-28 19:51 | 22.65586 | 48.45611 | 35773 ft | 472 kts | 274° |
| 2026-04-28 19:51 | 22.66205 | 48.38532 | 35773 ft | 472 kts | 274° |
| 2026-04-28 19:52 | 22.66822 | 48.31449 | 35773 ft | 473 kts | 274° |
| 2026-04-28 19:52 | 22.67436 | 48.24362 | 35795 ft | 473 kts | 274° |
| 2026-04-28 19:53 | 22.68048 | 48.17263 | 35776 ft | 473 kts | 274° |
| 2026-04-28 19:53 | 22.68656 | 48.10172 | 35769 ft | 473 kts | 274° |
| 2026-04-28 19:54 | 22.69261 | 48.03083 | 35771 ft | 472 kts | 274° |
| 2026-04-28 19:54 | 22.69853 | 47.96032 | 35778 ft | 472 kts | 274° |
| 2026-04-28 19:55 | 22.70442 | 47.88944 | 35780 ft | 472 kts | 274° |
| 2026-04-28 19:55 | 22.71028 | 47.81856 | 35779 ft | 472 kts | 274° |
| 2026-04-28 19:56 | 22.71613 | 47.74762 | 35791 ft | 473 kts | 274° |
| 2026-04-28 19:56 | 22.72194 | 47.67672 | 35792 ft | 473 kts | 274° |
| 2026-04-28 19:57 | 22.72773 | 47.60571 | 35799 ft | 473 kts | 274° |
| 2026-04-28 19:57 | 22.73345 | 47.53517 | 35801 ft | 472 kts | 274° |
| 2026-04-28 19:58 | 22.73916 | 47.46433 | 35813 ft | 472 kts | 274° |
| 2026-04-28 19:58 | 22.74484 | 47.39354 | 35806 ft | 471 kts | 274° |
| 2026-04-28 19:59 | 22.75047 | 47.32288 | 35809 ft | 471 kts | 274° |
| 2026-04-28 19:59 | 22.75608 | 47.25213 | 35826 ft | 471 kts | 274° |
| 2026-04-28 20:00 | 22.76165 | 47.18147 | 35830 ft | 471 kts | 274° |
| 2026-04-28 20:00 | 22.76728 | 47.11072 | 35832 ft | 471 kts | 274° |
| 2026-04-28 20:01 | 22.77292 | 47.04034 | 35852 ft | 471 kts | 274° |
| 2026-04-28 20:01 | 22.77855 | 46.96958 | 35846 ft | 471 kts | 274° |
| 2026-04-28 20:02 | 22.78414 | 46.89882 | 35845 ft | 471 kts | 274° |
| 2026-04-28 20:02 | 22.78966 | 46.82857 | 35849 ft | 470 kts | 274° |
| 2026-04-28 20:03 | 22.79516 | 46.75803 | 35851 ft | 470 kts | 274° |
| 2026-04-28 20:03 | 22.80065 | 46.68732 | 35869 ft | 470 kts | 273° |
| 2026-04-28 20:04 | 22.80610 | 46.61672 | 35872 ft | 470 kts | 273° |
| 2026-04-28 20:04 | 22.81151 | 46.54620 | 35874 ft | 469 kts | 273° |
| 2026-04-28 20:05 | 22.81689 | 46.47565 | 35904 ft | 469 kts | 273° |
| 2026-04-28 20:05 | 22.82220 | 46.40558 | 35879 ft | 469 kts | 273° |
| 2026-04-28 20:06 | 22.82747 | 46.33524 | 35891 ft | 468 kts | 273° |
| 2026-04-28 20:06 | 22.83264 | 46.26496 | 35878 ft | 467 kts | 273° |
| 2026-04-28 20:07 | 22.83778 | 46.19476 | 35873 ft | 467 kts | 273° |
| 2026-04-28 20:07 | 22.84289 | 46.12462 | 35881 ft | 467 kts | 273° |
| 2026-04-28 20:08 | 22.84798 | 46.05438 | 35883 ft | 467 kts | 273° |
| 2026-04-28 20:08 | 22.85305 | 45.98404 | 35879 ft | 468 kts | 273° |
| 2026-04-28 20:09 | 22.85809 | 45.91365 | 35895 ft | 468 kts | 273° |
| 2026-04-28 20:09 | 22.86306 | 45.84374 | 35868 ft | 468 kts | 273° |
| 2026-04-28 20:10 | 22.86804 | 45.77334 | 35881 ft | 467 kts | 273° |
| 2026-04-28 20:10 | 22.87297 | 45.70322 | 35875 ft | 466 kts | 273° |
| 2026-04-28 20:11 | 22.87786 | 45.63316 | 35877 ft | 465 kts | 273° |
| 2026-04-28 20:11 | 22.88272 | 45.56320 | 35877 ft | 465 kts | 273° |
| 2026-04-28 20:12 | 22.88753 | 45.49332 | 35872 ft | 464 kts | 273° |
| 2026-04-28 20:12 | 22.89232 | 45.42347 | 35876 ft | 464 kts | 273° |
| 2026-04-28 20:13 | 22.89704 | 45.35403 | 35882 ft | 465 kts | 273° |
| 2026-04-28 20:13 | 22.90178 | 45.28408 | 35876 ft | 465 kts | 272° |
| 2026-04-28 20:14 | 22.90647 | 45.21419 | 35876 ft | 465 kts | 272° |
| 2026-04-28 20:14 | 22.91114 | 45.14423 | 35872 ft | 465 kts | 272° |
| 2026-04-28 20:15 | 22.91576 | 45.07465 | 35879 ft | 465 kts | 272° |
| 2026-04-28 20:15 | 22.92038 | 45.00463 | 35882 ft | 465 kts | 272° |
| 2026-04-28 20:16 | 22.92497 | 44.93456 | 35882 ft | 466 kts | 272° |
| 2026-04-28 20:16 | 22.92955 | 44.86445 | 35882 ft | 466 kts | 272° |
| 2026-04-28 20:17 | 22.93410 | 44.79424 | 35889 ft | 466 kts | 272° |
| 2026-04-28 20:17 | 22.93862 | 44.72401 | 35884 ft | 466 kts | 272° |
| 2026-04-28 20:18 | 22.94611 | 44.66602 | 35897 ft | 468 kts | 279° |
| 2026-04-28 20:18 | 22.96731 | 44.58699 | 35900 ft | 470 kts | 286° |
| 2026-04-28 20:19 | 22.98507 | 44.53066 | 35894 ft | 470 kts | 286° |
| 2026-04-28 20:19 | 23.00597 | 44.46389 | 35893 ft | 470 kts | 286° |
| 2026-04-28 20:20 | 23.02678 | 44.39663 | 35901 ft | 469 kts | 285° |
| 2026-04-28 20:20 | 23.04742 | 44.32950 | 35893 ft | 469 kts | 285° |
| 2026-04-28 20:21 | 23.06800 | 44.26245 | 35901 ft | 468 kts | 285° |
| 2026-04-28 20:21 | 23.08854 | 44.19545 | 35902 ft | 467 kts | 285° |
| 2026-04-28 20:22 | 23.10904 | 44.12845 | 35899 ft | 467 kts | 285° |
| 2026-04-28 20:22 | 23.12947 | 44.06161 | 35900 ft | 466 kts | 285° |
| 2026-04-28 20:23 | 23.14974 | 43.99517 | 35916 ft | 466 kts | 285° |
| 2026-04-28 20:23 | 23.17007 | 43.92840 | 35912 ft | 465 kts | 285° |
| 2026-04-28 20:24 | 23.19037 | 43.86161 | 35913 ft | 465 kts | 285° |
| 2026-04-28 20:24 | 23.21061 | 43.79493 | 35927 ft | 464 kts | 285° |
| 2026-04-28 20:25 | 23.23081 | 43.72824 | 35930 ft | 464 kts | 285° |
| 2026-04-28 20:25 | 23.25099 | 43.66152 | 35937 ft | 464 kts | 285° |
| 2026-04-28 20:26 | 23.27115 | 43.59476 | 35944 ft | 465 kts | 285° |
| 2026-04-28 20:26 | 23.29129 | 43.52791 | 35950 ft | 465 kts | 285° |
| 2026-04-28 20:27 | 23.31140 | 43.46096 | 35956 ft | 465 kts | 285° |
| 2026-04-28 20:27 | 23.33147 | 43.39400 | 35968 ft | 466 kts | 285° |
| 2026-04-28 20:28 | 23.35153 | 43.32696 | 35974 ft | 466 kts | 284° |
| 2026-04-28 20:28 | 23.37157 | 43.25992 | 35973 ft | 465 kts | 284° |
| 2026-04-28 20:29 | 23.39141 | 43.19339 | 35983 ft | 465 kts | 284° |
| 2026-04-28 20:29 | 23.41134 | 43.12643 | 35983 ft | 465 kts | 284° |
| 2026-04-28 20:30 | 23.43116 | 43.05947 | 35992 ft | 464 kts | 284° |
| 2026-04-28 20:30 | 23.45094 | 42.99239 | 35994 ft | 464 kts | 284° |
| 2026-04-28 20:31 | 23.47065 | 42.92547 | 35992 ft | 464 kts | 284° |
| 2026-04-28 20:31 | 23.49032 | 42.85860 | 35991 ft | 464 kts | 284° |
| 2026-04-28 20:32 | 23.50997 | 42.79167 | 35991 ft | 463 kts | 284° |
| 2026-04-28 20:32 | 23.52949 | 42.72519 | 35989 ft | 464 kts | 284° |
| 2026-04-28 20:33 | 23.54925 | 42.65831 | 35996 ft | 464 kts | 284° |
| 2026-04-28 20:33 | 23.56901 | 42.59140 | 36002 ft | 464 kts | 284° |
| 2026-04-28 20:34 | 23.58876 | 42.52431 | 35989 ft | 464 kts | 284° |
| 2026-04-28 20:34 | 23.60841 | 42.45740 | 35990 ft | 463 kts | 284° |
| 2026-04-28 20:35 | 23.62804 | 42.39044 | 36000 ft | 463 kts | 284° |
| 2026-04-28 20:35 | 23.64761 | 42.32360 | 35988 ft | 463 kts | 284° |
| 2026-04-28 20:36 | 23.66709 | 42.25675 | 35992 ft | 462 kts | 284° |
| 2026-04-28 20:36 | 23.68634 | 42.18990 | 36000 ft | 462 kts | 284° |
| 2026-04-28 20:37 | 23.70552 | 42.12314 | 35994 ft | 461 kts | 284° |
| 2026-04-28 20:37 | 23.72460 | 42.05670 | 35994 ft | 461 kts | 284° |
| 2026-04-28 20:38 | 23.74373 | 41.98999 | 35994 ft | 460 kts | 284° |
| 2026-04-28 20:38 | 23.76305 | 41.92335 | 35990 ft | 460 kts | 284° |
| 2026-04-28 20:39 | 23.78243 | 41.85681 | 35992 ft | 460 kts | 284° |
| 2026-04-28 20:39 | 23.80176 | 41.79017 | 35994 ft | 460 kts | 284° |
| 2026-04-28 20:40 | 23.82099 | 41.72350 | 35984 ft | 460 kts | 283° |
| 2026-04-28 20:40 | 23.84010 | 41.65690 | 35996 ft | 459 kts | 283° |
| 2026-04-28 20:41 | 23.85918 | 41.59036 | 35987 ft | 458 kts | 283° |
| 2026-04-28 20:41 | 23.87807 | 41.52433 | 35999 ft | 458 kts | 283° |
| 2026-04-28 20:42 | 23.89702 | 41.45788 | 35983 ft | 457 kts | 283° |
| 2026-04-28 20:42 | 23.91588 | 41.39163 | 35981 ft | 456 kts | 283° |
| 2026-04-28 20:43 | 23.93471 | 41.32540 | 35999 ft | 456 kts | 283° |
| 2026-04-28 20:43 | 23.95348 | 41.25921 | 35981 ft | 455 kts | 283° |
| 2026-04-28 20:44 | 23.97218 | 41.19312 | 35983 ft | 455 kts | 283° |
| 2026-04-28 20:44 | 23.99086 | 41.12700 | 35994 ft | 454 kts | 283° |
| 2026-04-28 20:45 | 24.00946 | 41.06105 | 35984 ft | 454 kts | 283° |
| 2026-04-28 20:45 | 24.02793 | 40.99542 | 35978 ft | 454 kts | 283° |
| 2026-04-28 20:46 | 24.04649 | 40.92938 | 35979 ft | 454 kts | 283° |
| 2026-04-28 20:46 | 24.06499 | 40.86334 | 35982 ft | 453 kts | 283° |
| 2026-04-28 20:47 | 24.08342 | 40.79743 | 35976 ft | 453 kts | 283° |
| 2026-04-28 20:47 | 24.10184 | 40.73145 | 35765 ft | 451 kts | 283° |
| 2026-04-28 20:47 | 24.11087 | 40.69904 | 35257 ft | 446 kts | 283° |
| 2026-04-28 20:48 | 24.11981 | 40.66710 | 34353 ft | 433 kts | 283° |
| 2026-04-28 20:48 | 24.12854 | 40.63576 | 32962 ft | 430 kts | 282° |
| 2026-04-28 20:48 | 24.13724 | 40.60433 | 31352 ft | 433 kts | 283° |
| 2026-04-28 20:48 | 24.14595 | 40.57291 | 30326 ft | 427 kts | 283° |
| 2026-04-28 20:49 | 24.15450 | 40.54218 | 30173 ft | 419 kts | 283° |
| 2026-04-28 20:49 | 24.16271 | 40.51156 | 29231 ft | 416 kts | 280° |
| 2026-04-28 20:49 | 24.16780 | 40.48113 | 28543 ft | 397 kts | 275° |
| 2026-04-28 20:49 | 24.17116 | 40.45161 | 28001 ft | 387 kts | 273° |
| 2026-04-28 20:50 | 24.17416 | 40.42230 | 27990 ft | 386 kts | 273° |
| 2026-04-28 20:50 | 24.17718 | 40.39310 | 27974 ft | 386 kts | 273° |
| 2026-04-28 20:50 | 24.18035 | 40.36393 | 27974 ft | 385 kts | 274° |
| 2026-04-28 20:50 | 24.18363 | 40.33480 | 27971 ft | 385 kts | 274° |
| 2026-04-28 20:51 | 24.18700 | 40.30575 | 27973 ft | 385 kts | 274° |
| 2026-04-28 20:51 | 24.19041 | 40.27669 | 27971 ft | 384 kts | 274° |
| 2026-04-28 20:51 | 24.19379 | 40.24807 | 27980 ft | 384 kts | 274° |
| 2026-04-28 20:51 | 24.19605 | 40.22891 | 27978 ft | 383 kts | 274° |
| 2026-04-28 20:52 | 24.20057 | 40.19061 | 27970 ft | 383 kts | 274° |
| 2026-04-28 20:52 | 24.20398 | 40.16172 | 27969 ft | 381 kts | 274° |
| 2026-04-28 20:52 | 24.20729 | 40.13386 | 27941 ft | 355 kts | 274° |
| 2026-04-28 20:52 | 24.21038 | 40.10800 | 27947 ft | 330 kts | 273° |
| 2026-04-28 20:53 | 24.21619 | 40.05788 | 27984 ft | 337 kts | 273° |
| 2026-04-28 20:53 | 24.21914 | 40.03224 | 27983 ft | 342 kts | 274° |
| 2026-04-28 20:53 | 24.22217 | 40.00622 | 27989 ft | 346 kts | 273° |
| 2026-04-28 20:54 | 24.22524 | 39.97992 | 27988 ft | 350 kts | 274° |
| 2026-04-28 20:54 | 24.22846 | 39.95341 | 27801 ft | 352 kts | 276° |
| 2026-04-28 20:54 | 24.23657 | 39.92779 | 26963 ft | 364 kts | 292° |
| 2026-04-28 20:54 | 24.25184 | 39.90511 | 25942 ft | 377 kts | 307° |
| 2026-04-28 20:55 | 24.27222 | 39.88633 | 24874 ft | 390 kts | 318° |
| 2026-04-28 20:55 | 24.29680 | 39.87257 | 23817 ft | 408 kts | 337° |
| 2026-04-28 20:55 | 24.32489 | 39.86624 | 22715 ft | 414 kts | 345° |
| 2026-04-28 20:55 | 24.35324 | 39.86123 | 21789 ft | 410 kts | 345° |
| 2026-04-28 20:56 | 24.38115 | 39.85614 | 21017 ft | 403 kts | 344° |
| 2026-04-28 20:56 | 24.40841 | 39.85076 | 20221 ft | 395 kts | 344° |
| 2026-04-28 20:56 | 24.43504 | 39.84523 | 19394 ft | 391 kts | 343° |
| 2026-04-28 20:56 | 24.46160 | 39.83963 | 18568 ft | 387 kts | 344° |
| 2026-04-28 20:57 | 24.48795 | 39.83396 | 17711 ft | 383 kts | 344° |
| 2026-04-28 20:57 | 24.51396 | 39.82834 | 16896 ft | 378 kts | 344° |
| 2026-04-28 20:57 | 24.53952 | 39.82281 | 16351 ft | 369 kts | 344° |
| 2026-04-28 20:57 | 24.56439 | 39.81747 | 15883 ft | 359 kts | 344° |
| 2026-04-28 20:58 | 24.58851 | 39.81237 | 15444 ft | 348 kts | 344° |
| 2026-04-28 20:58 | 24.61192 | 39.80744 | 15027 ft | 337 kts | 344° |
| 2026-04-28 20:58 | 24.63458 | 39.80266 | 14601 ft | 328 kts | 344° |
| 2026-04-28 20:58 | 24.65678 | 39.79794 | 14095 ft | 322 kts | 344° |
| 2026-04-28 20:59 | 24.67857 | 39.79330 | 13485 ft | 320 kts | 344° |
| 2026-04-28 20:59 | 24.70040 | 39.78864 | 12833 ft | 318 kts | 345° |
| 2026-04-28 20:59 | 24.72208 | 39.78401 | 12228 ft | 316 kts | 345° |
| 2026-04-28 20:59 | 24.74332 | 39.77949 | 11636 ft | 314 kts | 345° |
| 2026-04-28 21:00 | 24.76471 | 39.77495 | 11065 ft | 311 kts | 346° |
| 2026-04-28 21:00 | 24.78584 | 39.77048 | 10509 ft | 308 kts | 345° |
| 2026-04-28 21:00 | 24.80687 | 39.76601 | 9939 ft | 307 kts | 345° |
| 2026-04-28 21:00 | 24.82773 | 39.76155 | 9382 ft | 304 kts | 346° |
| 2026-04-28 21:01 | 24.84810 | 39.75720 | 9063 ft | 291 kts | 346° |
| 2026-04-28 21:01 | 24.86762 | 39.75305 | 8754 ft | 281 kts | 346° |
| 2026-04-28 21:01 | 24.88020 | 39.75038 | 8515 ft | 275 kts | 347° |
| 2026-04-28 21:02 | 24.90183 | 39.74447 | 7998 ft | 266 kts | 331° |
| 2026-04-28 21:02 | 24.91584 | 39.73195 | 7520 ft | 257 kts | 302° |
| 2026-04-28 21:02 | 24.92164 | 39.71445 | 7386 ft | 236 kts | 272° |
| 2026-04-28 21:02 | 24.92144 | 39.69635 | 7481 ft | 235 kts | 265° |
| 2026-04-28 21:03 | 24.92022 | 39.67845 | 7510 ft | 234 kts | 264° |
| 2026-04-28 21:03 | 24.91887 | 39.66074 | 7503 ft | 235 kts | 264° |
| 2026-04-28 21:03 | 24.91688 | 39.64299 | 7487 ft | 232 kts | 253° |
| 2026-04-28 21:03 | 24.90838 | 39.62827 | 7461 ft | 230 kts | 219° |
| 2026-04-28 21:04 | 24.89391 | 39.62149 | 7455 ft | 230 kts | 186° |
| 2026-04-28 21:04 | 24.87851 | 39.62474 | 7451 ft | 225 kts | 156° |
| 2026-04-28 21:04 | 24.86481 | 39.63252 | 7254 ft | 222 kts | 156° |
| 2026-04-28 21:04 | 24.85063 | 39.63907 | 6965 ft | 219 kts | 160° |
| 2026-04-28 21:05 | 24.83638 | 39.64462 | 6695 ft | 216 kts | 162° |
| 2026-04-28 21:05 | 24.82211 | 39.64962 | 6417 ft | 214 kts | 164° |
| 2026-04-28 21:05 | 24.80769 | 39.65357 | 6179 ft | 212 kts | 167° |
| 2026-04-28 21:05 | 24.79332 | 39.65690 | 5993 ft | 211 kts | 169° |
| 2026-04-28 21:06 | 24.77894 | 39.66004 | 5815 ft | 211 kts | 170° |
| 2026-04-28 21:06 | 24.76451 | 39.66314 | 5631 ft | 211 kts | 170° |
| 2026-04-28 21:06 | 24.74997 | 39.66625 | 5449 ft | 211 kts | 170° |
| 2026-04-28 21:06 | 24.73594 | 39.66926 | 5238 ft | 200 kts | 171° |
| 2026-04-28 21:07 | 24.72264 | 39.67209 | 4988 ft | 191 kts | 171° |
| 2026-04-28 21:07 | 24.71405 | 39.67393 | 4850 ft | 189 kts | 171° |
| 2026-04-28 21:07 | 24.69712 | 39.67755 | 4505 ft | 180 kts | 171° |
| 2026-04-28 21:07 | 24.68520 | 39.68010 | 4267 ft | 167 kts | 171° |
| 2026-04-28 21:08 | 24.67390 | 39.68251 | 4068 ft | 165 kts | 171° |
| 2026-04-28 21:08 | 24.66259 | 39.68493 | 3861 ft | 166 kts | 171° |
| 2026-04-28 21:08 | 24.65141 | 39.68732 | 3651 ft | 161 kts | 171° |
| 2026-04-28 21:08 | 24.64073 | 39.68960 | 3437 ft | 151 kts | 171° |
| 2026-04-28 21:09 | 24.63064 | 39.69175 | 3257 ft | 149 kts | 171° |
| 2026-04-28 21:09 | 24.62043 | 39.69393 | 3066 ft | 149 kts | 171° |
| 2026-04-28 21:09 | 24.61026 | 39.69611 | 2864 ft | 150 kts | 170° |
| 2026-04-28 21:09 | 24.60009 | 39.69829 | 2670 ft | 149 kts | 170° |
| 2026-04-28 21:10 | 24.58986 | 39.70043 | 2427 ft | 149 kts | 171° |
| 2026-04-28 21:10 | 24.57984 | 39.70262 | 2236 ft | 147 kts | 171° |
| 2026-04-28 21:10 | 24.57320 | 39.70401 | 2132 ft | 143 kts | 171° |
| 2026-04-28 21:10 | 24.56433 | 39.70590 | 2118 ft | 112 kts | 169° |
| 2026-04-28 21:11 | 24.55819 | 39.70720 | 2115 ft | 67 kts | 169° |
| 2026-04-28 21:11 | 24.55448 | 39.70801 | 2115 ft | 41 kts | 164° |
| 2026-04-28 21:11 | 24.55264 | 39.70916 | 2114 ft | 24 kts | 142° |
| 2026-04-28 21:11 | 24.55226 | 39.70956 | 2114 ft | 0 kts | 126° |
| 2026-04-28 21:13 | 24.55217 | 39.70987 | 2113 ft | 9 kts | 97° |
| 2026-04-28 21:13 | 24.55219 | 39.71027 | 2112 ft | 0 kts | 83° |
| 2026-04-28 21:14 | 24.55219 | 39.71029 | 2112 ft | 1 kts | 83° |
| 2026-04-28 21:14 | 24.55227 | 39.71087 | 2111 ft | 12 kts | 80° |
| 2026-04-28 21:14 | 24.55239 | 39.71159 | 2110 ft | 10 kts | 79° |
| 2026-04-28 21:14 | 24.55284 | 39.71212 | 2110 ft | 10 kts | 12° |
| 2026-04-28 21:15 | 24.55355 | 39.71204 | 2110 ft | 10 kts | 349° |
| 2026-04-28 21:15 | 24.55425 | 39.71192 | 2110 ft | 10 kts | 2° |
| 2026-04-28 21:15 | 24.55463 | 39.71247 | 2110 ft | 6 kts | 76° |
| 2026-04-28 21:15 | 24.55466 | 39.71262 | 2110 ft | 2 kts | 78° |
| 2026-04-28 21:16 | 24.55468 | 39.71276 | 2110 ft | 2 kts | 78° |
| 2026-04-28 21:16 | 24.55470 | 39.71283 | 2110 ft | 0 kts | 78° |